sensor_id;sensor_type;location;lat;lon;timestamp;temperature;humidity
12006;DHT22;6062;47.294;12.182;2022-09-14T00:00:50;16.70;49.90
12006;DHT22;6062;47.294;12.182;2022-09-14T00:03:17;16.70;50.00
12006;DHT22;6062;47.294;12.182;2022-09-14T00:05:43;16.70;50.00
12006;DHT22;6062;47.294;12.182;2022-09-14T00:08:09;16.70;50.00
12006;DHT22;6062;47.294;12.182;2022-09-14T00:10:45;16.70;50.20
12006;DHT22;6062;47.294;12.182;2022-09-14T00:13:13;16.60;50.20
12006;DHT22;6062;47.294;12.182;2022-09-14T00:15:41;16.70;50.20
12006;DHT22;6062;47.294;12.182;2022-09-14T00:18:10;16.70;50.40
12006;DHT22;6062;47.294;12.182;2022-09-14T00:20:36;16.70;50.40
12006;DHT22;6062;47.294;12.182;2022-09-14T00:23:02;16.70;50.30
12006;DHT22;6062;47.294;12.182;2022-09-14T00:25:29;16.80;50.30
12006;DHT22;6062;47.294;12.182;2022-09-14T00:27:56;16.80;50.30
12006;DHT22;6062;47.294;12.182;2022-09-14T00:30:22;16.90;50.40
12006;DHT22;6062;47.294;12.182;2022-09-14T00:32:49;16.90;50.40
12006;DHT22;6062;47.294;12.182;2022-09-14T00:35:16;17.00;50.30
12006;DHT22;6062;47.294;12.182;2022-09-14T00:37:42;17.00;50.30
12006;DHT22;6062;47.294;12.182;2022-09-14T00:40:09;17.00;50.30
12006;DHT22;6062;47.294;12.182;2022-09-14T00:42:36;17.10;50.30
12006;DHT22;6062;47.294;12.182;2022-09-14T00:45:09;17.10;50.10
12006;DHT22;6062;47.294;12.182;2022-09-14T00:47:39;17.10;50.20
12006;DHT22;6062;47.294;12.182;2022-09-14T00:50:06;17.20;50.00
12006;DHT22;6062;47.294;12.182;2022-09-14T00:52:33;17.20;50.20
12006;DHT22;6062;47.294;12.182;2022-09-14T00:55:09;17.20;50.10
12006;DHT22;6062;47.294;12.182;2022-09-14T00:57:42;17.20;50.00
12006;DHT22;6062;47.294;12.182;2022-09-14T01:00:13;17.20;49.90
12006;DHT22;6062;47.294;12.182;2022-09-14T01:02:41;17.20;49.90
12006;DHT22;6062;47.294;12.182;2022-09-14T01:05:09;17.20;50.00
12006;DHT22;6062;47.294;12.182;2022-09-14T01:10:31;17.20;50.00
12006;DHT22;6062;47.294;12.182;2022-09-14T01:16:30;17.20;50.10
12006;DHT22;6062;47.294;12.182;2022-09-14T01:19:40;17.20;50.10
12006;DHT22;6062;47.294;12.182;2022-09-14T01:22:28;17.20;49.90
12006;DHT22;6062;47.294;12.182;2022-09-14T01:29:03;17.20;50.00
12006;DHT22;6062;47.294;12.182;2022-09-14T01:37:49;17.20;50.00
12006;DHT22;6062;47.294;12.182;2022-09-14T01:40:27;17.20;49.80
12006;DHT22;6062;47.294;12.182;2022-09-14T01:43:05;17.10;49.80
12006;DHT22;6062;47.294;12.182;2022-09-14T01:45:44;17.10;49.90
12006;DHT22;6062;47.294;12.182;2022-09-14T01:48:15;17.10;49.80
12006;DHT22;6062;47.294;12.182;2022-09-14T01:50:52;17.00;49.90
12006;DHT22;6062;47.294;12.182;2022-09-14T01:53:33;17.00;50.20
12006;DHT22;6062;47.294;12.182;2022-09-14T01:56:11;17.00;50.20
12006;DHT22;6062;47.294;12.182;2022-09-14T01:58:59;17.00;50.20
12006;DHT22;6062;47.294;12.182;2022-09-14T02:01:51;17.00;50.50
12006;DHT22;6062;47.294;12.182;2022-09-14T02:04:41;16.90;50.60
12006;DHT22;6062;47.294;12.182;2022-09-14T02:07:17;17.00;50.70
12006;DHT22;6062;47.294;12.182;2022-09-14T02:09:46;17.00;50.60
12006;DHT22;6062;47.294;12.182;2022-09-14T02:12:13;17.00;50.60
12006;DHT22;6062;47.294;12.182;2022-09-14T02:14:40;16.90;50.60
12006;DHT22;6062;47.294;12.182;2022-09-14T02:17:06;16.90;50.70
12006;DHT22;6062;47.294;12.182;2022-09-14T02:19:39;16.90;50.70
12006;DHT22;6062;47.294;12.182;2022-09-14T02:22:08;16.90;50.80
12006;DHT22;6062;47.294;12.182;2022-09-14T02:24:35;17.00;50.80
12006;DHT22;6062;47.294;12.182;2022-09-14T02:27:02;17.00;50.80
12006;DHT22;6062;47.294;12.182;2022-09-14T02:29:28;17.00;50.80
12006;DHT22;6062;47.294;12.182;2022-09-14T02:40:57;17.10;50.80
12006;DHT22;6062;47.294;12.182;2022-09-14T02:43:44;17.10;50.80
12006;DHT22;6062;47.294;12.182;2022-09-14T02:46:36;17.10;50.70
12006;DHT22;6062;47.294;12.182;2022-09-14T02:52:38;17.20;50.70
12006;DHT22;6062;47.294;12.182;2022-09-14T02:55:17;17.30;50.60
12006;DHT22;6062;47.294;12.182;2022-09-14T02:57:58;17.30;50.70
12006;DHT22;6062;47.294;12.182;2022-09-14T03:00:36;17.30;50.70
12006;DHT22;6062;47.294;12.182;2022-09-14T03:03:06;17.30;50.50
12006;DHT22;6062;47.294;12.182;2022-09-14T03:05:34;17.40;50.50
12006;DHT22;6062;47.294;12.182;2022-09-14T03:08:00;17.40;50.40
12006;DHT22;6062;47.294;12.182;2022-09-14T03:10:27;17.40;50.40
12006;DHT22;6062;47.294;12.182;2022-09-14T03:12:53;17.40;50.50
12006;DHT22;6062;47.294;12.182;2022-09-14T03:15:19;17.40;50.30
12006;DHT22;6062;47.294;12.182;2022-09-14T03:17:49;17.40;50.20
12006;DHT22;6062;47.294;12.182;2022-09-14T03:20:17;17.40;50.20
12006;DHT22;6062;47.294;12.182;2022-09-14T03:22:45;17.40;50.20
12006;DHT22;6062;47.294;12.182;2022-09-14T03:25:11;17.40;50.10
12006;DHT22;6062;47.294;12.182;2022-09-14T03:27:38;17.40;49.80
12006;DHT22;6062;47.294;12.182;2022-09-14T03:30:05;17.40;50.00
12006;DHT22;6062;47.294;12.182;2022-09-14T03:32:32;17.40;50.00
12006;DHT22;6062;47.294;12.182;2022-09-14T03:34:58;17.40;50.10
12006;DHT22;6062;47.294;12.182;2022-09-14T03:37:24;17.30;50.00
12006;DHT22;6062;47.294;12.182;2022-09-14T03:39:51;17.30;49.90
12006;DHT22;6062;47.294;12.182;2022-09-14T03:42:17;17.30;50.00
12006;DHT22;6062;47.294;12.182;2022-09-14T03:44:43;17.30;50.10
12006;DHT22;6062;47.294;12.182;2022-09-14T03:47:08;17.30;50.10
12006;DHT22;6062;47.294;12.182;2022-09-14T03:49:34;17.20;50.10
12006;DHT22;6062;47.294;12.182;2022-09-14T03:52:00;17.20;50.10
12006;DHT22;6062;47.294;12.182;2022-09-14T03:54:26;17.20;50.30
12006;DHT22;6062;47.294;12.182;2022-09-14T03:56:52;17.10;50.30
12006;DHT22;6062;47.294;12.182;2022-09-14T03:59:18;17.10;50.50
12006;DHT22;6062;47.294;12.182;2022-09-14T04:01:45;17.00;50.50
12006;DHT22;6062;47.294;12.182;2022-09-14T04:04:11;17.00;50.70
12006;DHT22;6062;47.294;12.182;2022-09-14T04:06:37;17.00;50.80
12006;DHT22;6062;47.294;12.182;2022-09-14T04:09:03;16.90;50.90
12006;DHT22;6062;47.294;12.182;2022-09-14T04:11:29;16.90;50.90
12006;DHT22;6062;47.294;12.182;2022-09-14T04:14:00;16.90;51.10
12006;DHT22;6062;47.294;12.182;2022-09-14T04:16:27;16.80;51.00
12006;DHT22;6062;47.294;12.182;2022-09-14T04:18:53;16.80;51.30
12006;DHT22;6062;47.294;12.182;2022-09-14T04:21:21;16.80;51.20
12006;DHT22;6062;47.294;12.182;2022-09-14T04:23:53;16.70;51.20
12006;DHT22;6062;47.294;12.182;2022-09-14T04:26:22;16.70;51.10
12006;DHT22;6062;47.294;12.182;2022-09-14T04:28:49;16.70;51.30
12006;DHT22;6062;47.294;12.182;2022-09-14T04:31:15;16.70;51.40
12006;DHT22;6062;47.294;12.182;2022-09-14T04:33:42;16.80;51.50
12006;DHT22;6062;47.294;12.182;2022-09-14T04:36:11;16.80;51.50
12006;DHT22;6062;47.294;12.182;2022-09-14T04:38:40;16.80;51.70
12006;DHT22;6062;47.294;12.182;2022-09-14T04:41:15;16.80;51.80
12006;DHT22;6062;47.294;12.182;2022-09-14T04:43:44;16.80;51.90
12006;DHT22;6062;47.294;12.182;2022-09-14T04:46:19;16.80;52.00
12006;DHT22;6062;47.294;12.182;2022-09-14T04:48:47;16.70;52.00
12006;DHT22;6062;47.294;12.182;2022-09-14T04:51:15;16.70;52.10
12006;DHT22;6062;47.294;12.182;2022-09-14T04:53:44;16.70;52.10
12006;DHT22;6062;47.294;12.182;2022-09-14T04:56:13;16.70;52.20
12006;DHT22;6062;47.294;12.182;2022-09-14T04:58:42;16.70;52.20
12006;DHT22;6062;47.294;12.182;2022-09-14T05:01:13;16.70;52.30
12006;DHT22;6062;47.294;12.182;2022-09-14T05:03:41;16.60;52.30
12006;DHT22;6062;47.294;12.182;2022-09-14T05:06:09;16.60;52.30
12006;DHT22;6062;47.294;12.182;2022-09-14T05:08:37;16.60;52.50
12006;DHT22;6062;47.294;12.182;2022-09-14T05:11:05;16.60;52.60
12006;DHT22;6062;47.294;12.182;2022-09-14T05:13:32;16.60;52.80
12006;DHT22;6062;47.294;12.182;2022-09-14T05:16:10;16.60;52.80
12006;DHT22;6062;47.294;12.182;2022-09-14T05:18:39;16.60;52.80
12006;DHT22;6062;47.294;12.182;2022-09-14T05:21:07;16.70;52.80
12006;DHT22;6062;47.294;12.182;2022-09-14T05:23:35;16.70;52.70
12006;DHT22;6062;47.294;12.182;2022-09-14T05:26:02;16.60;52.60
12006;DHT22;6062;47.294;12.182;2022-09-14T05:28:28;16.60;52.60
12006;DHT22;6062;47.294;12.182;2022-09-14T05:30:56;16.70;52.60
12006;DHT22;6062;47.294;12.182;2022-09-14T05:33:22;16.70;52.70
12006;DHT22;6062;47.294;12.182;2022-09-14T05:35:50;16.60;52.60
12006;DHT22;6062;47.294;12.182;2022-09-14T05:38:16;16.70;52.80
12006;DHT22;6062;47.294;12.182;2022-09-14T05:40:42;16.70;52.80
12006;DHT22;6062;47.294;12.182;2022-09-14T05:43:08;16.70;52.90
12006;DHT22;6062;47.294;12.182;2022-09-14T05:45:34;16.70;53.00
12006;DHT22;6062;47.294;12.182;2022-09-14T05:48:01;16.70;53.10
12006;DHT22;6062;47.294;12.182;2022-09-14T05:50:30;16.70;53.20
12006;DHT22;6062;47.294;12.182;2022-09-14T05:52:56;16.70;53.10
12006;DHT22;6062;47.294;12.182;2022-09-14T05:55:22;16.70;53.00
12006;DHT22;6062;47.294;12.182;2022-09-14T05:57:48;16.70;53.10
12006;DHT22;6062;47.294;12.182;2022-09-14T06:00:15;16.80;53.50
12006;DHT22;6062;47.294;12.182;2022-09-14T06:02:49;16.80;53.40
12006;DHT22;6062;47.294;12.182;2022-09-14T06:05:18;16.80;53.50
12006;DHT22;6062;47.294;12.182;2022-09-14T06:07:52;16.90;53.30
12006;DHT22;6062;47.294;12.182;2022-09-14T06:10:19;16.90;53.40
12006;DHT22;6062;47.294;12.182;2022-09-14T06:12:45;16.90;53.40
12006;DHT22;6062;47.294;12.182;2022-09-14T06:15:12;17.00;53.20
12006;DHT22;6062;47.294;12.182;2022-09-14T06:17:37;17.00;53.20
12006;DHT22;6062;47.294;12.182;2022-09-14T06:20:04;17.10;53.10
12006;DHT22;6062;47.294;12.182;2022-09-14T06:22:32;17.10;53.30
12006;DHT22;6062;47.294;12.182;2022-09-14T06:24:58;17.10;53.50
12006;DHT22;6062;47.294;12.182;2022-09-14T06:27:23;17.10;53.60
12006;DHT22;6062;47.294;12.182;2022-09-14T06:29:49;17.10;53.50
12006;DHT22;6062;47.294;12.182;2022-09-14T06:32:18;17.10;53.50
12006;DHT22;6062;47.294;12.182;2022-09-14T06:34:44;17.10;54.00
12006;DHT22;6062;47.294;12.182;2022-09-14T06:37:10;17.20;54.20
12006;DHT22;6062;47.294;12.182;2022-09-14T06:39:36;17.10;54.30
12006;DHT22;6062;47.294;12.182;2022-09-14T06:42:02;17.10;54.30
12006;DHT22;6062;47.294;12.182;2022-09-14T06:44:28;17.20;54.30
12006;DHT22;6062;47.294;12.182;2022-09-14T06:46:54;17.20;54.40
12006;DHT22;6062;47.294;12.182;2022-09-14T06:49:20;17.20;54.60
12006;DHT22;6062;47.294;12.182;2022-09-14T06:51:48;17.20;54.90
12006;DHT22;6062;47.294;12.182;2022-09-14T06:54:16;17.20;55.10
12006;DHT22;6062;47.294;12.182;2022-09-14T06:56:44;17.20;55.50
12006;DHT22;6062;47.294;12.182;2022-09-14T06:59:13;17.20;55.70
12006;DHT22;6062;47.294;12.182;2022-09-14T07:01:41;17.20;55.70
12006;DHT22;6062;47.294;12.182;2022-09-14T07:04:09;17.20;55.70
12006;DHT22;6062;47.294;12.182;2022-09-14T07:06:46;17.20;55.30
12006;DHT22;6062;47.294;12.182;2022-09-14T07:09:14;17.20;56.50
12006;DHT22;6062;47.294;12.182;2022-09-14T07:11:42;17.10;56.40
12006;DHT22;6062;47.294;12.182;2022-09-14T07:14:08;17.20;56.90
12006;DHT22;6062;47.294;12.182;2022-09-14T07:16:36;17.20;56.90
12006;DHT22;6062;47.294;12.182;2022-09-14T07:19:06;17.30;57.00
12006;DHT22;6062;47.294;12.182;2022-09-14T07:21:34;17.30;57.10
12006;DHT22;6062;47.294;12.182;2022-09-14T07:24:01;17.40;56.70
12006;DHT22;6062;47.294;12.182;2022-09-14T07:26:32;17.60;56.50
12006;DHT22;6062;47.294;12.182;2022-09-14T07:29:05;17.70;56.60
12006;DHT22;6062;47.294;12.182;2022-09-14T07:31:43;17.90;56.40
12006;DHT22;6062;47.294;12.182;2022-09-14T07:34:11;18.10;56.10
12006;DHT22;6062;47.294;12.182;2022-09-14T07:36:38;18.20;56.40
12006;DHT22;6062;47.294;12.182;2022-09-14T07:39:06;18.40;56.50
12006;DHT22;6062;47.294;12.182;2022-09-14T07:41:34;18.60;55.80
12006;DHT22;6062;47.294;12.182;2022-09-14T07:44:03;18.80;54.50
12006;DHT22;6062;47.294;12.182;2022-09-14T07:46:36;19.00;53.80
12006;DHT22;6062;47.294;12.182;2022-09-14T07:49:06;19.10;53.00
12006;DHT22;6062;47.294;12.182;2022-09-14T07:51:33;19.10;52.40
12006;DHT22;6062;47.294;12.182;2022-09-14T07:54:01;19.10;51.90
12006;DHT22;6062;47.294;12.182;2022-09-14T07:56:28;19.10;51.90
12006;DHT22;6062;47.294;12.182;2022-09-14T07:58:56;19.10;52.50
12006;DHT22;6062;47.294;12.182;2022-09-14T08:01:23;19.10;53.60
12006;DHT22;6062;47.294;12.182;2022-09-14T08:03:49;19.20;54.30
12006;DHT22;6062;47.294;12.182;2022-09-14T08:06:20;19.40;54.60
12006;DHT22;6062;47.294;12.182;2022-09-14T08:08:52;19.60;55.30
12006;DHT22;6062;47.294;12.182;2022-09-14T08:11:24;20.00;56.00
12006;DHT22;6062;47.294;12.182;2022-09-14T08:13:54;20.50;53.70
12006;DHT22;6062;47.294;12.182;2022-09-14T08:16:23;20.90;52.70
12006;DHT22;6062;47.294;12.182;2022-09-14T08:19:14;21.40;51.10
12006;DHT22;6062;47.294;12.182;2022-09-14T08:21:43;21.70;50.80
12006;DHT22;6062;47.294;12.182;2022-09-14T08:24:12;22.00;49.90
12006;DHT22;6062;47.294;12.182;2022-09-14T08:26:40;22.20;48.20
12006;DHT22;6062;47.294;12.182;2022-09-14T08:29:06;22.30;48.20
12006;DHT22;6062;47.294;12.182;2022-09-14T08:31:36;22.50;48.20
12006;DHT22;6062;47.294;12.182;2022-09-14T08:34:03;22.60;47.60
12006;DHT22;6062;47.294;12.182;2022-09-14T08:36:33;22.80;47.80
12006;DHT22;6062;47.294;12.182;2022-09-14T08:39:02;23.00;47.90
12006;DHT22;6062;47.294;12.182;2022-09-14T08:44:15;23.40;48.10
12006;DHT22;6062;47.294;12.182;2022-09-14T08:49:47;24.00;47.70
12006;DHT22;6062;47.294;12.182;2022-09-14T08:52:38;24.40;46.80
12006;DHT22;6062;47.294;12.182;2022-09-14T08:58:31;25.40;45.30
12006;DHT22;6062;47.294;12.182;2022-09-14T09:04:07;26.30;43.60
12006;DHT22;6062;47.294;12.182;2022-09-14T09:07:10;26.70;42.70
12006;DHT22;6062;47.294;12.182;2022-09-14T09:09:47;27.10;42.60
12006;DHT22;6062;47.294;12.182;2022-09-14T09:12:33;27.40;41.20
12006;DHT22;6062;47.294;12.182;2022-09-14T09:15:13;27.70;41.40
12006;DHT22;6062;47.294;12.182;2022-09-14T09:18:00;28.00;40.00
12006;DHT22;6062;47.294;12.182;2022-09-14T09:20:32;28.30;39.30
12006;DHT22;6062;47.294;12.182;2022-09-14T09:23:22;28.60;37.50
12006;DHT22;6062;47.294;12.182;2022-09-14T09:25:56;28.70;38.50
12006;DHT22;6062;47.294;12.182;2022-09-14T09:28:26;28.90;37.10
12006;DHT22;6062;47.294;12.182;2022-09-14T09:30:54;29.00;36.50
12006;DHT22;6062;47.294;12.182;2022-09-14T09:33:24;29.10;36.70
12006;DHT22;6062;47.294;12.182;2022-09-14T09:35:52;29.20;36.90
12006;DHT22;6062;47.294;12.182;2022-09-14T09:38:22;29.40;36.80
12006;DHT22;6062;47.294;12.182;2022-09-14T09:41:23;29.50;37.00
12006;DHT22;6062;47.294;12.182;2022-09-14T09:46:36;30.10;36.50
12006;DHT22;6062;47.294;12.182;2022-09-14T09:49:30;30.50;35.70
12006;DHT22;6062;47.294;12.182;2022-09-14T09:52:10;30.80;34.70
12006;DHT22;6062;47.294;12.182;2022-09-14T09:54:40;31.10;34.50
12006;DHT22;6062;47.294;12.182;2022-09-14T09:57:30;31.40;35.40
12006;DHT22;6062;47.294;12.182;2022-09-14T10:00:24;31.70;34.80
12006;DHT22;6062;47.294;12.182;2022-09-14T10:02:53;32.10;33.20
12006;DHT22;6062;47.294;12.182;2022-09-14T10:10:19;32.10;31.40
12006;DHT22;6062;47.294;12.182;2022-09-14T10:12:54;32.00;30.40
12006;DHT22;6062;47.294;12.182;2022-09-14T10:15:29;31.80;30.70
12006;DHT22;6062;47.294;12.182;2022-09-14T10:21:03;31.40;29.90
12006;DHT22;6062;47.294;12.182;2022-09-14T10:23:34;31.20;30.80
12006;DHT22;6062;47.294;12.182;2022-09-14T10:28:44;30.60;30.80
12006;DHT22;6062;47.294;12.182;2022-09-14T10:31:24;30.40;31.50
12006;DHT22;6062;47.294;12.182;2022-09-14T10:33:56;30.30;31.20
12006;DHT22;6062;47.294;12.182;2022-09-14T10:36:29;30.20;32.50
12006;DHT22;6062;47.294;12.182;2022-09-14T10:50:16;29.30;32.30
12006;DHT22;6062;47.294;12.182;2022-09-14T11:10:29;28.60;35.50
12006;DHT22;6062;47.294;12.182;2022-09-14T11:13:32;28.60;36.30
12006;DHT22;6062;47.294;12.182;2022-09-14T11:16:23;28.70;36.50
12006;DHT22;6062;47.294;12.182;2022-09-14T11:21:56;28.90;34.50
12006;DHT22;6062;47.294;12.182;2022-09-14T11:24:39;28.90;33.00
12006;DHT22;6062;47.294;12.182;2022-09-14T11:27:31;28.70;32.60
12006;DHT22;6062;47.294;12.182;2022-09-14T11:30:08;28.30;32.50
12006;DHT22;6062;47.294;12.182;2022-09-14T11:33:03;27.70;32.60
12006;DHT22;6062;47.294;12.182;2022-09-14T11:35:40;27.00;33.00
12006;DHT22;6062;47.294;12.182;2022-09-14T11:38:18;26.40;35.40
12006;DHT22;6062;47.294;12.182;2022-09-14T11:43:22;25.70;38.00
12006;DHT22;6062;47.294;12.182;2022-09-14T11:46:05;25.50;38.10
12006;DHT22;6062;47.294;12.182;2022-09-14T11:51:37;25.40;38.20
12006;DHT22;6062;47.294;12.182;2022-09-14T11:54:25;25.50;39.40
12006;DHT22;6062;47.294;12.182;2022-09-14T11:57:00;25.50;39.10
12006;DHT22;6062;47.294;12.182;2022-09-14T11:59:47;25.60;39.00
12006;DHT22;6062;47.294;12.182;2022-09-14T12:15:30;25.60;40.10
12006;DHT22;6062;47.294;12.182;2022-09-14T12:23:24;25.70;40.00
12006;DHT22;6062;47.294;12.182;2022-09-14T12:26:05;25.70;40.30
12006;DHT22;6062;47.294;12.182;2022-09-14T12:28:46;25.70;40.40
12006;DHT22;6062;47.294;12.182;2022-09-14T12:31:57;25.70;39.60
12006;DHT22;6062;47.294;12.182;2022-09-14T12:34:27;25.60;39.90
12006;DHT22;6062;47.294;12.182;2022-09-14T12:37:00;25.50;39.50
12006;DHT22;6062;47.294;12.182;2022-09-14T12:39:30;25.40;39.70
12006;DHT22;6062;47.294;12.182;2022-09-14T12:42:01;25.30;40.00
12006;DHT22;6062;47.294;12.182;2022-09-14T12:44:38;25.20;40.00
12006;DHT22;6062;47.294;12.182;2022-09-14T12:49:54;25.00;40.10
12006;DHT22;6062;47.294;12.182;2022-09-14T12:55:48;24.80;40.60
12006;DHT22;6062;47.294;12.182;2022-09-14T12:58:48;24.70;41.40
12006;DHT22;6062;47.294;12.182;2022-09-14T13:04:27;24.50;41.60
12006;DHT22;6062;47.294;12.182;2022-09-14T13:06:55;24.40;41.40
12006;DHT22;6062;47.294;12.182;2022-09-14T13:09:26;24.30;41.40
12006;DHT22;6062;47.294;12.182;2022-09-14T13:11:59;24.20;41.80
12006;DHT22;6062;47.294;12.182;2022-09-14T13:14:36;24.20;42.10
12006;DHT22;6062;47.294;12.182;2022-09-14T13:17:13;24.20;42.30
12006;DHT22;6062;47.294;12.182;2022-09-14T13:19:41;24.10;42.30
12006;DHT22;6062;47.294;12.182;2022-09-14T13:22:40;24.10;42.30
12006;DHT22;6062;47.294;12.182;2022-09-14T13:25:28;24.10;42.30
12006;DHT22;6062;47.294;12.182;2022-09-14T13:28:01;24.00;41.70
12006;DHT22;6062;47.294;12.182;2022-09-14T13:30:30;24.00;42.60
12006;DHT22;6062;47.294;12.182;2022-09-14T13:32:58;24.00;41.50
12006;DHT22;6062;47.294;12.182;2022-09-14T13:37:57;23.80;41.90
12006;DHT22;6062;47.294;12.182;2022-09-14T13:40:27;23.70;42.30
12006;DHT22;6062;47.294;12.182;2022-09-14T13:42:55;23.70;42.20
12006;DHT22;6062;47.294;12.182;2022-09-14T13:45:22;23.60;42.30
12006;DHT22;6062;47.294;12.182;2022-09-14T13:47:49;23.50;42.40
12006;DHT22;6062;47.294;12.182;2022-09-14T13:50:17;23.40;42.50
12006;DHT22;6062;47.294;12.182;2022-09-14T13:52:43;23.30;42.50
12006;DHT22;6062;47.294;12.182;2022-09-14T13:55:27;23.30;42.90
12006;DHT22;6062;47.294;12.182;2022-09-14T13:58:12;23.20;43.20
12006;DHT22;6062;47.294;12.182;2022-09-14T14:05:56;23.00;43.60
12006;DHT22;6062;47.294;12.182;2022-09-14T14:08:33;23.00;43.80
12006;DHT22;6062;47.294;12.182;2022-09-14T14:11:04;23.00;44.20
12006;DHT22;6062;47.294;12.182;2022-09-14T14:13:34;22.90;44.30
12006;DHT22;6062;47.294;12.182;2022-09-14T14:16:22;22.90;44.30
12006;DHT22;6062;47.294;12.182;2022-09-14T14:23:53;22.90;44.30
12006;DHT22;6062;47.294;12.182;2022-09-14T14:26:47;22.90;44.60
12006;DHT22;6062;47.294;12.182;2022-09-14T14:29:15;22.90;44.60
12006;DHT22;6062;47.294;12.182;2022-09-14T14:31:42;22.90;44.60
12006;DHT22;6062;47.294;12.182;2022-09-14T14:34:22;22.80;44.20
12006;DHT22;6062;47.294;12.182;2022-09-14T14:36:53;22.80;44.10
12006;DHT22;6062;47.294;12.182;2022-09-14T14:39:22;22.80;44.20
12006;DHT22;6062;47.294;12.182;2022-09-14T14:41:49;22.70;44.30
12006;DHT22;6062;47.294;12.182;2022-09-14T14:44:19;22.70;44.20
12006;DHT22;6062;47.294;12.182;2022-09-14T14:46:47;22.60;44.30
12006;DHT22;6062;47.294;12.182;2022-09-14T14:49:15;22.50;44.60
12006;DHT22;6062;47.294;12.182;2022-09-14T14:51:42;22.40;44.70
12006;DHT22;6062;47.294;12.182;2022-09-14T14:54:09;22.30;45.40
12006;DHT22;6062;47.294;12.182;2022-09-14T14:56:36;22.20;45.00
12006;DHT22;6062;47.294;12.182;2022-09-14T15:01:46;22.10;45.60
12006;DHT22;6062;47.294;12.182;2022-09-14T15:04:12;22.10;45.40
12006;DHT22;6062;47.294;12.182;2022-09-14T15:06:39;22.00;45.30
12006;DHT22;6062;47.294;12.182;2022-09-14T15:09:09;22.00;45.60
12006;DHT22;6062;47.294;12.182;2022-09-14T15:11:39;21.90;45.70
12006;DHT22;6062;47.294;12.182;2022-09-14T15:14:12;21.90;45.80
12006;DHT22;6062;47.294;12.182;2022-09-14T15:16:39;21.90;45.90
12006;DHT22;6062;47.294;12.182;2022-09-14T15:19:05;21.90;46.00
12006;DHT22;6062;47.294;12.182;2022-09-14T15:21:30;21.90;46.20
12006;DHT22;6062;47.294;12.182;2022-09-14T15:23:56;21.80;46.00
12006;DHT22;6062;47.294;12.182;2022-09-14T15:26:26;21.80;46.00
12006;DHT22;6062;47.294;12.182;2022-09-14T15:28:51;21.80;46.10
12006;DHT22;6062;47.294;12.182;2022-09-14T15:31:18;21.70;46.10
12006;DHT22;6062;47.294;12.182;2022-09-14T15:33:44;21.70;46.10
12006;DHT22;6062;47.294;12.182;2022-09-14T15:36:09;21.60;46.20
12006;DHT22;6062;47.294;12.182;2022-09-14T15:38:35;21.60;46.30
12006;DHT22;6062;47.294;12.182;2022-09-14T15:41:01;21.50;46.10
12006;DHT22;6062;47.294;12.182;2022-09-14T15:43:27;21.40;46.20
12006;DHT22;6062;47.294;12.182;2022-09-14T15:45:53;21.40;46.40
12006;DHT22;6062;47.294;12.182;2022-09-14T15:48:18;21.30;46.40
12006;DHT22;6062;47.294;12.182;2022-09-14T15:50:46;21.30;46.50
12006;DHT22;6062;47.294;12.182;2022-09-14T15:53:13;21.20;46.70
12006;DHT22;6062;47.294;12.182;2022-09-14T15:55:41;21.10;46.70
12006;DHT22;6062;47.294;12.182;2022-09-14T15:58:09;21.00;46.80
12006;DHT22;6062;47.294;12.182;2022-09-14T16:00:36;21.00;47.00
12006;DHT22;6062;47.294;12.182;2022-09-14T16:03:05;20.90;47.10
12006;DHT22;6062;47.294;12.182;2022-09-14T16:05:31;20.80;47.10
12006;DHT22;6062;47.294;12.182;2022-09-14T16:07:58;20.70;47.30
12006;DHT22;6062;47.294;12.182;2022-09-14T16:10:25;20.70;48.00
12006;DHT22;6062;47.294;12.182;2022-09-14T16:12:52;20.60;48.50
12006;DHT22;6062;47.294;12.182;2022-09-14T16:15:19;20.50;48.90
12006;DHT22;6062;47.294;12.182;2022-09-14T16:17:49;20.50;49.40
12006;DHT22;6062;47.294;12.182;2022-09-14T16:20:16;20.40;50.50
12006;DHT22;6062;47.294;12.182;2022-09-14T16:22:41;20.30;51.30
12006;DHT22;6062;47.294;12.182;2022-09-14T16:25:07;20.10;51.70
12006;DHT22;6062;47.294;12.182;2022-09-14T16:27:33;19.90;51.70
12006;DHT22;6062;47.294;12.182;2022-09-14T16:29:59;19.70;52.20
12006;DHT22;6062;47.294;12.182;2022-09-14T16:32:24;19.50;52.90
12006;DHT22;6062;47.294;12.182;2022-09-14T16:34:50;19.40;53.50
12006;DHT22;6062;47.294;12.182;2022-09-14T16:37:16;19.20;54.20
12006;DHT22;6062;47.294;12.182;2022-09-14T16:39:41;19.10;54.70
12006;DHT22;6062;47.294;12.182;2022-09-14T16:42:07;19.00;54.80
12006;DHT22;6062;47.294;12.182;2022-09-14T16:44:33;19.00;55.10
12006;DHT22;6062;47.294;12.182;2022-09-14T16:46:58;18.90;55.40
12006;DHT22;6062;47.294;12.182;2022-09-14T16:49:25;18.80;56.10
12006;DHT22;6062;47.294;12.182;2022-09-14T16:51:50;18.80;56.80
12006;DHT22;6062;47.294;12.182;2022-09-14T16:54:18;18.70;56.70
12006;DHT22;6062;47.294;12.182;2022-09-14T16:56:46;18.70;57.80
12006;DHT22;6062;47.294;12.182;2022-09-14T16:59:12;18.70;57.30
12006;DHT22;6062;47.294;12.182;2022-09-14T17:01:43;18.70;57.30
12006;DHT22;6062;47.294;12.182;2022-09-14T17:04:12;18.70;57.10
12006;DHT22;6062;47.294;12.182;2022-09-14T17:06:42;18.60;56.50
12006;DHT22;6062;47.294;12.182;2022-09-14T17:09:13;18.60;56.30
12006;DHT22;6062;47.294;12.182;2022-09-14T17:11:48;18.60;56.50
12006;DHT22;6062;47.294;12.182;2022-09-14T17:14:16;18.60;56.90
12006;DHT22;6062;47.294;12.182;2022-09-14T17:16:44;18.60;57.40
12006;DHT22;6062;47.294;12.182;2022-09-14T17:19:10;18.60;57.40
12006;DHT22;6062;47.294;12.182;2022-09-14T17:21:37;18.50;57.90
12006;DHT22;6062;47.294;12.182;2022-09-14T17:24:05;18.50;58.80
12006;DHT22;6062;47.294;12.182;2022-09-14T17:26:33;18.50;59.30
12006;DHT22;6062;47.294;12.182;2022-09-14T17:29:00;18.40;59.50
12006;DHT22;6062;47.294;12.182;2022-09-14T17:31:38;18.40;61.40
12006;DHT22;6062;47.294;12.182;2022-09-14T17:34:08;18.40;61.40
12006;DHT22;6062;47.294;12.182;2022-09-14T17:36:35;18.40;60.80
12006;DHT22;6062;47.294;12.182;2022-09-14T17:39:02;18.40;61.00
12006;DHT22;6062;47.294;12.182;2022-09-14T17:41:30;18.40;60.70
12006;DHT22;6062;47.294;12.182;2022-09-14T17:44:00;18.40;60.30
12006;DHT22;6062;47.294;12.182;2022-09-14T17:46:28;18.40;60.20
12006;DHT22;6062;47.294;12.182;2022-09-14T17:48:56;18.40;60.30
12006;DHT22;6062;47.294;12.182;2022-09-14T17:51:25;18.40;60.20
12006;DHT22;6062;47.294;12.182;2022-09-14T17:53:53;18.40;60.20
12006;DHT22;6062;47.294;12.182;2022-09-14T17:56:23;18.30;60.10
12006;DHT22;6062;47.294;12.182;2022-09-14T17:58:58;18.30;60.20
12006;DHT22;6062;47.294;12.182;2022-09-14T18:01:29;18.30;59.60
12006;DHT22;6062;47.294;12.182;2022-09-14T18:03:58;18.20;59.20
12006;DHT22;6062;47.294;12.182;2022-09-14T18:06:29;18.20;59.00
12006;DHT22;6062;47.294;12.182;2022-09-14T18:09:00;18.20;58.40